Time;durP1;ratioP1;P1;durP2;ratioP2;P2;SDS_P1;SDS_P2;PMS_P1;PMS_P2;Temp;Humidity;BMP_temperature;BMP_pressure;BME280_temperature;BME280_humidity;BME280_pressure;Samples;Min_cycle;Max_cycle;Signal;HPM_P1;HPM_P2
2023/08/17 00:01:47;;;;;;;98.20;75.07;;;22.00;99.90;;;;;;5048346;28;20455;-88
2023/08/17 00:04:13;;;;;;;101.87;79.93;;;22.00;99.90;;;;;;5047296;28;20479;-88
2023/08/17 00:06:39;;;;;;;101.30;82.07;;;22.00;99.90;;;;;;5066221;28;20161;-85
2023/08/17 00:09:05;;;;;;;95.50;66.73;;;22.00;99.90;;;;;;5047695;28;20280;-85
2023/08/17 00:11:30;;;;;;;94.97;68.83;;;22.00;99.90;;;;;;5066546;28;20644;-85
2023/08/17 00:13:56;;;;;;;102.00;83.57;;;22.00;99.90;;;;;;5066067;28;20224;-88
2023/08/17 00:16:23;;;;;;;96.97;77.87;;;22.00;99.90;;;;;;5065060;28;20168;-88
2023/08/17 00:18:49;;;;;;;96.07;67.17;;;22.00;99.90;;;;;;5045493;28;20172;-87
2023/08/17 00:21:14;;;;;;;100.00;80.07;;;21.90;99.90;;;;;;5064434;28;20512;-87
2023/08/17 00:23:40;;;;;;;98.53;72.90;;;21.90;99.90;;;;;;5064180;28;20157;-87
2023/08/17 00:26:06;;;;;;;96.67;72.67;;;21.90;99.90;;;;;;5064005;28;20160;-87
2023/08/17 00:28:32;;;;;;;90.00;52.63;;;22.00;99.90;;;;;;5045531;28;20170;-87
2023/08/17 00:30:59;;;;;;;99.23;75.97;;;21.80;99.90;;;;;;5064219;28;20184;-88
2023/08/17 00:33:25;;;;;;;96.07;62.17;;;21.90;99.90;;;;;;5063653;28;20418;-88
2023/08/17 00:35:50;;;;;;;91.33;58.57;;;21.90;99.90;;;;;;5065498;28;20403;-85
2023/08/17 00:38:16;;;;;;;88.77;54.57;;;21.80;99.90;;;;;;5064469;28;20165;-87
2023/08/17 00:40:42;;;;;;;94.47;64.40;;;21.80;99.90;;;;;;5063523;28;20184;-87
2023/08/17 00:43:07;;;;;;;97.37;71.10;;;21.70;99.90;;;;;;5063803;28;20160;-87
2023/08/17 00:45:34;;;;;;;100.03;79.93;;;21.60;99.90;;;;;;5064662;28;20275;-87
2023/08/17 00:47:59;;;;;;;123.50;110.80;;;21.50;99.90;;;;;;5065170;28;20632;-87
2023/08/17 00:50:26;;;;;;;124.37;111.93;;;21.40;99.90;;;;;;5064419;28;20429;-87
2023/08/17 00:52:53;;;;;;;123.03;110.33;;;21.40;99.90;;;;;;5046270;28;20204;-87
2023/08/17 00:55:19;;;;;;;131.27;118.40;;;21.40;99.90;;;;;;5062785;28;20403;-87
2023/08/17 00:57:45;;;;;;;127.33;114.57;;;21.50;99.90;;;;;;5063513;28;20410;-87
2023/08/17 01:00:13;;;;;;;130.77;117.70;;;21.30;99.90;;;;;;5057785;28;20431;-87
2023/08/17 01:02:41;;;;;;;136.93;123.90;;;21.40;99.90;;;;;;5129088;22;20741;-78
2023/08/17 01:05:07;;;;;;;136.90;123.93;;;21.30;99.90;;;;;;5055581;28;20482;-78
2023/08/17 01:07:33;;;;;;;136.60;123.40;;;21.30;99.90;;;;;;5056626;28;20433;-78
2023/08/17 01:10:00;;;;;;;151.63;137.93;;;21.30;99.90;;;;;;5056816;28;20442;-78
2023/08/17 01:12:58;;;;;;;138.80;125.10;;;21.30;99.90;;;;;;5056891;28;20395;-78
2023/08/17 01:15:31;;;;;;;144.13;130.57;;;21.30;99.90;;;;;;5056214;28;20895;-80
2023/08/17 01:18:25;;;;;;;140.20;126.90;;;21.20;99.90;;;;;;5056424;28;20380;-78
2023/08/17 01:20:55;;;;;;;137.80;124.73;;;21.20;99.90;;;;;;5052309;28;20491;-78
2023/08/17 01:23:22;;;;;;;136.60;123.63;;;21.20;99.90;;;;;;5056088;28;20795;-78
2023/08/17 01:25:48;;;;;;;113.00;100.87;;;21.20;99.90;;;;;;5056184;28;20457;-78
2023/08/17 01:28:13;;;;;;;129.07;116.27;;;21.10;99.90;;;;;;5056062;28;20399;-78
2023/08/17 01:31:14;;;;;;;112.40;100.27;;;21.10;99.90;;;;;;5055958;28;20227;-78
2023/08/17 01:33:55;;;;;;;133.50;120.33;;;21.00;99.90;;;;;;5055975;28;20170;-78
2023/08/17 01:36:30;;;;;;;134.47;121.30;;;21.00;99.90;;;;;;5055436;28;20421;-78
2023/08/17 01:38:57;;;;;;;135.77;122.67;;;21.00;99.90;;;;;;5054933;28;20418;-78
2023/08/17 01:41:25;;;;;;;121.63;109.17;;;21.00;99.90;;;;;;5055894;28;20451;-78
2023/08/17 01:43:51;;;;;;;134.90;121.83;;;21.00;99.90;;;;;;5054654;28;20409;-78
2023/08/17 01:46:18;;;;;;;125.60;113.00;;;21.00;99.90;;;;;;5054621;28;20407;-78
2023/08/17 01:48:45;;;;;;;124.40;111.63;;;21.00;99.90;;;;;;5054600;28;20407;-78
2023/08/17 01:51:12;;;;;;;120.03;107.27;;;21.10;99.90;;;;;;5054455;28;20403;-78
2023/08/17 01:53:37;;;;;;;105.30;91.13;;;21.10;99.90;;;;;;5054496;28;20926;-78
2023/08/17 01:56:03;;;;;;;103.23;86.10;;;21.10;99.90;;;;;;5054232;28;20414;-78
2023/08/17 01:58:29;;;;;;;105.57;92.33;;;21.10;99.90;;;;;;5055345;28;20168;-78
2023/08/17 02:00:54;;;;;;;104.27;92.77;;;21.00;99.90;;;;;;5055271;28;20251;-78
2023/08/17 02:03:20;;;;;;;117.90;105.50;;;20.90;99.90;;;;;;5055971;28;20533;-78
2023/08/17 02:05:47;;;;;;;104.73;90.37;;;20.90;99.90;;;;;;5055795;28;20308;-78
2023/08/17 02:08:12;;;;;;;98.40;77.23;;;21.00;99.90;;;;;;5040654;28;20172;-78
2023/08/17 02:10:38;;;;;;;94.47;67.87;;;21.10;99.90;;;;;;5059036;28;20512;-78
2023/08/17 02:13:04;;;;;;;97.83;75.07;;;21.00;99.90;;;;;;5058955;28;20164;-78
2023/08/17 02:15:30;;;;;;;97.67;77.37;;;21.10;99.90;;;;;;5040661;28;20186;-78
2023/08/17 02:17:57;;;;;;;96.20;71.37;;;21.00;99.90;;;;;;5058588;28;20178;-78
2023/08/17 02:20:23;;;;;;;93.03;63.17;;;21.00;99.90;;;;;;5058471;28;20418;-78
2023/08/17 02:22:48;;;;;;;96.13;75.07;;;20.90;99.90;;;;;;5059218;28;20469;-78
2023/08/17 02:25:14;;;;;;;99.20;75.53;;;20.90;99.90;;;;;;5058385;28;20157;-78
2023/08/17 02:27:43;;;;;;;95.43;66.67;;;20.90;99.90;;;;;;5057996;28;20221;-78
2023/08/17 02:30:09;;;;;;;103.30;75.87;;;21.00;99.90;;;;;;5058369;28;20185;-79
2023/08/17 02:32:34;;;;;;;97.67;63.03;;;21.00;99.90;;;;;;5040266;28;20414;-78
2023/08/17 02:35:00;;;;;;;87.83;47.30;;;21.10;99.90;;;;;;5058604;28;20400;-78
2023/08/17 02:37:26;;;;;;;89.13;48.70;;;21.20;99.90;;;;;;5058030;28;20169;-78
2023/08/17 02:39:51;;;;;;;88.27;48.90;;;21.10;99.90;;;;;;5058838;28;20197;-78
2023/08/17 02:42:17;;;;;;;88.63;49.67;;;21.20;99.90;;;;;;5058309;28;20189;-78
2023/08/17 02:44:43;;;;;;;87.83;49.20;;;21.20;99.90;;;;;;5058206;28;20176;-78
2023/08/17 02:47:08;;;;;;;89.53;40.50;;;21.20;99.90;;;;;;5058137;28;20486;-78
2023/08/17 02:49:35;;;;;;;86.20;39.67;;;21.20;99.90;;;;;;5058553;28;20208;-79
2023/08/17 02:52:00;;;;;;;84.03;41.30;;;21.20;99.90;;;;;;5058547;28;20164;-78
2023/08/17 02:54:26;;;;;;;86.20;45.83;;;21.10;99.90;;;;;;5058074;28;20914;-78
2023/08/17 02:56:52;;;;;;;89.20;51.93;;;21.10;99.90;;;;;;5058075;28;20648;-78
2023/08/17 02:59:18;;;;;;;88.23;50.13;;;21.10;99.90;;;;;;5058243;28;20208;-78
2023/08/17 03:01:45;;;;;;;86.00;44.10;;;21.20;99.90;;;;;;5057622;28;20195;-78
2023/08/17 03:04:11;;;;;;;88.90;45.30;;;21.10;99.90;;;;;;5057810;28;20156;-78
2023/08/17 03:06:36;;;;;;;90.20;43.23;;;21.10;99.90;;;;;;5057498;28;20410;-78
2023/08/17 03:09:02;;;;;;;91.27;49.67;;;21.10;99.90;;;;;;5057018;28;20180;-78
2023/08/17 03:11:28;;;;;;;88.97;51.37;;;21.10;99.90;;;;;;5056956;28;20169;-78
2023/08/17 03:13:59;;;;;;;89.13;52.57;;;21.10;99.90;;;;;;5057177;28;20409;-78
2023/08/17 03:16:26;;;;;;;89.57;46.70;;;21.20;99.90;;;;;;5057794;28;20149;-78
2023/08/17 03:18:51;;;;;;;89.70;51.47;;;21.20;99.90;;;;;;5055877;28;20410;-78
2023/08/17 03:21:18;;;;;;;91.40;51.93;;;21.20;99.90;;;;;;5055991;28;20538;-78
2023/08/17 03:23:44;;;;;;;85.17;42.03;;;21.20;99.90;;;;;;5056773;28;20536;-78
2023/08/17 03:26:09;;;;;;;85.23;36.57;;;21.20;99.90;;;;;;5056352;28;20409;-78
2023/08/17 03:28:35;;;;;;;90.47;47.77;;;21.20;99.90;;;;;;5038204;28;20581;-78
2023/08/17 03:31:02;;;;;;;86.33;38.60;;;21.20;99.90;;;;;;5056067;28;20199;-78
2023/08/17 03:33:28;;;;;;;86.10;42.17;;;21.20;99.90;;;;;;5056395;28;20192;-78
2023/08/17 03:35:54;;;;;;;86.90;42.00;;;21.20;99.90;;;;;;5056221;28;20395;-78
2023/08/17 03:38:20;;;;;;;82.07;34.70;;;21.20;99.90;;;;;;5055939;28;20222;-78
2023/08/17 03:40:46;;;;;;;85.60;44.23;;;21.20;99.90;;;;;;5038604;28;20194;-78
2023/08/17 03:43:15;;;;;;;86.83;45.33;;;21.20;99.90;;;;;;5056688;28;20184;-78
2023/08/17 03:45:42;;;;;;;92.30;59.33;;;21.10;99.90;;;;;;5056829;28;20849;-78
2023/08/17 03:48:08;;;;;;;89.97;54.17;;;21.00;99.90;;;;;;5056329;28;20418;-78
2023/08/17 03:50:34;;;;;;;90.93;53.97;;;21.00;99.90;;;;;;5056505;28;20421;-78
2023/08/17 03:52:59;;;;;;;100.20;76.67;;;21.00;99.90;;;;;;5056393;28;20411;-78
2023/08/17 03:55:25;;;;;;;99.23;77.70;;;21.00;99.90;;;;;;5056109;28;20173;-78
2023/08/17 03:57:51;;;;;;;100.13;82.23;;;20.90;99.90;;;;;;5056056;28;20177;-78
2023/08/17 04:00:16;;;;;;;104.37;91.70;;;20.80;99.90;;;;;;5056089;28;20178;-78
2023/08/17 04:02:42;;;;;;;120.57;108.17;;;20.70;99.90;;;;;;5056077;28;20203;-78
2023/08/17 04:05:08;;;;;;;110.63;98.93;;;20.70;99.90;;;;;;5055606;28;20169;-78
2023/08/17 04:07:34;;;;;;;110.83;98.97;;;20.70;99.90;;;;;;5055680;28;20406;-78
2023/08/17 04:10:00;;;;;;;112.33;100.37;;;20.60;99.90;;;;;;5055390;28;20273;-78
2023/08/17 04:12:25;;;;;;;114.93;102.50;;;20.60;99.90;;;;;;5055578;28;20215;-78
2023/08/17 04:14:51;;;;;;;114.20;101.73;;;20.60;99.90;;;;;;5055870;28;20698;-78
2023/08/17 04:17:17;;;;;;;134.47;121.27;;;20.50;99.90;;;;;;5037444;28;20641;-78
2023/08/17 04:19:43;;;;;;;138.47;125.07;;;20.40;99.90;;;;;;5055451;28;20189;-78
2023/08/17 04:22:09;;;;;;;139.13;125.33;;;20.40;99.90;;;;;;5055380;28;20694;-78
2023/08/17 04:24:34;;;;;;;152.73;137.90;;;20.40;99.90;;;;;;5037390;28;20173;-78
2023/08/17 04:27:00;;;;;;;140.50;126.60;;;20.30;99.90;;;;;;5056116;28;20928;-78
2023/08/17 04:29:26;;;;;;;139.93;126.20;;;20.30;99.90;;;;;;5054998;28;20211;-78
2023/08/17 04:31:51;;;;;;;128.83;115.70;;;20.40;99.90;;;;;;5054918;28;20173;-78
2023/08/17 04:34:17;;;;;;;129.97;116.70;;;20.40;99.90;;;;;;5054590;28;20184;-78
2023/08/17 04:36:43;;;;;;;144.23;130.23;;;20.30;99.90;;;;;;5054617;28;20168;-78
2023/08/17 04:39:09;;;;;;;135.60;121.97;;;20.30;99.90;;;;;;5055455;28;20602;-78
2023/08/17 04:41:35;;;;;;;137.50;123.80;;;20.20;99.90;;;;;;5038543;28;20290;-78
2023/08/17 04:44:00;;;;;;;140.97;127.23;;;20.20;99.90;;;;;;5056233;28;20431;-78
2023/08/17 04:46:26;;;;;;;141.70;127.93;;;20.10;99.90;;;;;;5055950;28;20173;-78
2023/08/17 04:48:52;;;;;;;134.90;121.37;;;20.20;99.90;;;;;;5055611;28;20191;-78
2023/08/17 04:51:18;;;;;;;137.87;123.90;;;20.20;99.90;;;;;;5055638;28;20163;-78
2023/08/17 04:53:43;;;;;;;148.23;134.00;;;20.20;99.90;;;;;;5055251;28;20875;-78
2023/08/17 04:56:09;;;;;;;145.90;131.77;;;20.10;99.90;;;;;;5055257;28;20170;-78
2023/08/17 04:58:38;;;;;;;139.10;125.17;;;20.10;99.90;;;;;;5037703;28;20172;-78
2023/08/17 05:01:03;;;;;;;138.40;124.47;;;20.10;99.90;;;;;;5054987;28;20612;-78
2023/08/17 05:03:30;;;;;;;139.07;125.07;;;20.10;99.90;;;;;;5055452;28;20386;-78
2023/08/17 05:05:56;;;;;;;134.90;121.43;;;20.10;99.90;;;;;;5055217;28;20157;-78
2023/08/17 05:08:22;;;;;;;132.53;119.10;;;20.20;99.90;;;;;;5055366;28;20490;-78
2023/08/17 05:10:48;;;;;;;129.03;115.57;;;20.10;99.90;;;;;;5037225;28;20216;-78
2023/08/17 05:13:14;;;;;;;132.90;119.53;;;20.20;99.90;;;;;;5055228;28;20189;-78
2023/08/17 05:15:39;;;;;;;127.73;114.27;;;20.20;99.90;;;;;;5055166;28;20402;-78
2023/08/17 05:18:05;;;;;;;113.17;100.83;;;20.30;99.90;;;;;;5055856;28;20487;-78
2023/08/17 05:20:31;;;;;;;115.57;102.70;;;20.40;99.90;;;;;;5054691;28;20177;-79
2023/08/17 05:22:57;;;;;;;114.13;101.93;;;20.30;99.90;;;;;;5054746;28;20675;-78
2023/08/17 05:25:22;;;;;;;109.87;94.90;;;20.30;99.90;;;;;;5055113;28;20172;-78
2023/08/17 05:27:51;;;;;;;100.47;80.30;;;20.40;99.90;;;;;;5055494;28;20171;-78
2023/08/17 05:30:17;;;;;;;106.63;91.20;;;20.50;99.90;;;;;;5054843;28;20253;-78
2023/08/17 05:32:43;;;;;;;107.23;91.80;;;20.40;99.90;;;;;;5054834;28;20767;-77
2023/08/17 05:35:08;;;;;;;107.73;91.37;;;20.40;99.90;;;;;;5054794;28;20458;-77
2023/08/17 05:37:34;;;;;;;103.37;81.77;;;20.30;99.90;;;;;;5054429;28;20174;-77
2023/08/17 05:39:59;;;;;;;109.23;97.30;;;20.30;99.90;;;;;;5054980;28;20191;-78
2023/08/17 05:42:25;;;;;;;113.77;101.33;;;20.20;99.90;;;;;;5057714;28;20192;-77
2023/08/17 05:44:51;;;;;;;106.13;92.83;;;20.20;99.90;;;;;;5058290;28;20224;-78
2023/08/17 05:47:19;;;;;;;104.90;91.47;;;20.20;99.90;;;;;;5058255;28;20232;-77
2023/08/17 05:49:44;;;;;;;105.73;90.00;;;20.20;99.90;;;;;;5058085;28;20172;-78
2023/08/17 05:52:10;;;;;;;106.53;93.67;;;20.20;99.90;;;;;;5058014;28;20923;-77
2023/08/17 05:54:36;;;;;;;105.10;88.17;;;20.30;99.90;;;;;;5057697;28;20164;-77
2023/08/17 05:57:02;;;;;;;108.43;90.07;;;20.30;99.90;;;;;;5057749;28;20172;-77
2023/08/17 05:59:28;;;;;;;104.83;86.90;;;20.40;99.90;;;;;;5057877;28;20185;-77
2023/08/17 06:01:54;;;;;;;99.70;75.63;;;20.40;99.90;;;;;;5057493;28;20507;-77
2023/08/17 06:04:20;;;;;;;100.80;70.00;;;20.50;99.90;;;;;;5057528;28;20167;-78
2023/08/17 06:06:46;;;;;;;100.73;82.83;;;20.40;99.90;;;;;;5057672;28;20159;-77
2023/08/17 06:09:12;;;;;;;100.77;75.27;;;20.40;99.90;;;;;;5057723;28;20429;-77
2023/08/17 06:11:38;;;;;;;96.73;65.87;;;20.50;99.90;;;;;;5057489;28;20175;-77
2023/08/17 06:14:04;;;;;;;93.57;61.10;;;20.50;99.90;;;;;;5039308;28;20635;-77
2023/08/17 06:16:30;;;;;;;91.63;59.77;;;20.70;99.90;;;;;;5057470;28;20411;-77
2023/08/17 06:18:55;;;;;;;91.33;50.17;;;20.70;99.90;;;;;;5039227;28;20434;-77
2023/08/17 06:21:21;;;;;;;86.83;45.87;;;20.80;99.90;;;;;;5057221;28;20446;-77
2023/08/17 06:23:47;;;;;;;87.83;43.47;;;20.80;99.90;;;;;;5057125;28;20167;-77
2023/08/17 06:26:13;;;;;;;94.97;46.17;;;20.70;99.90;;;;;;5057182;28;20169;-77
2023/08/17 06:28:38;;;;;;;86.33;43.67;;;20.80;99.90;;;;;;5057053;28;20184;-77
2023/08/17 06:31:04;;;;;;;89.03;46.80;;;20.80;99.90;;;;;;5057249;28;20173;-77
2023/08/17 06:33:30;;;;;;;86.07;37.80;;;20.90;99.90;;;;;;5056901;28;20234;-78
2023/08/17 06:35:55;;;;;;;88.20;42.33;;;20.90;99.90;;;;;;5056978;28;20179;-77
2023/08/17 06:38:21;;;;;;;85.90;40.47;;;20.90;99.90;;;;;;5057187;28;20167;-77
2023/08/17 06:40:47;;;;;;;84.43;34.90;;;20.90;99.90;;;;;;5056985;28;20183;-77
2023/08/17 06:43:13;;;;;;;85.00;38.37;;;21.00;99.90;;;;;;5039114;28;20644;-77
2023/08/17 06:45:39;;;;;;;84.70;30.07;;;21.00;99.90;;;;;;5057018;28;20431;-77
2023/08/17 06:48:05;;;;;;;81.30;25.33;;;21.10;99.90;;;;;;5056889;28;20175;-77
2023/08/17 06:50:30;;;;;;;81.97;26.00;;;21.00;99.90;;;;;;5056457;28;20259;-77
2023/08/17 06:52:56;;;;;;;82.50;29.50;;;21.10;99.90;;;;;;5056550;28;20480;-77
2023/08/17 06:55:22;;;;;;;81.97;27.47;;;21.20;99.90;;;;;;5056977;28;20173;-77
2023/08/17 06:57:51;;;;;;;81.07;22.80;;;21.10;99.90;;;;;;5057199;28;20508;-77
2023/08/17 07:00:20;;;;;;;77.53;18.07;;;21.10;99.90;;;;;;5038711;28;20671;-77
2023/08/17 07:02:50;;;;;;;78.50;19.30;;;21.20;99.90;;;;;;5145447;22;20544;-85
2023/08/17 07:05:16;;;;;;;80.13;18.63;;;21.20;99.90;;;;;;5062055;28;20739;-85
2023/08/17 07:07:42;;;;;;;78.60;13.30;;;21.20;99.90;;;;;;5045520;28;20418;-86
2023/08/17 07:10:09;;;;;;;76.90;15.97;;;21.30;99.90;;;;;;5063545;28;20184;-86
2023/08/17 07:12:34;;;;;;;77.77;18.00;;;21.30;99.90;;;;;;5062839;28;20405;-86
2023/08/17 07:15:00;;;;;;;78.47;20.73;;;21.30;99.90;;;;;;5064231;28;20423;-86
2023/08/17 07:17:26;;;;;;;80.20;21.70;;;21.30;99.90;;;;;;5062706;28;20173;-86
2023/08/17 07:19:51;;;;;;;82.90;20.10;;;21.50;99.90;;;;;;5063116;28;20259;-85
2023/08/17 07:22:20;;;;;;;79.73;21.10;;;21.50;99.90;;;;;;5062405;28;20196;-86
2023/08/17 07:24:45;;;;;;;80.47;24.13;;;21.50;99.90;;;;;;5063013;28;20617;-85
2023/08/17 07:27:11;;;;;;;80.23;24.00;;;21.60;99.90;;;;;;5044674;28;20411;-87
2023/08/17 07:29:37;;;;;;;78.27;23.83;;;21.70;99.90;;;;;;5044314;28;20188;-86
2023/08/17 07:32:02;;;;;;;80.07;24.03;;;21.90;99.90;;;;;;5061884;28;20514;-86
2023/08/17 07:34:54;;;;;;;80.37;25.10;;;22.00;99.90;;;;;;5044409;28;20192;-87
2023/08/17 07:37:23;;;;;;;81.67;23.20;;;22.00;99.90;;;;;;5043548;28;20651;-85
2023/08/17 07:39:49;;;;;;;85.80;27.03;;;21.80;99.90;;;;;;5043293;28;20434;-86
2023/08/17 07:42:15;;;;;;;82.57;26.23;;;21.90;99.90;;;;;;5062544;28;20443;-85
2023/08/17 07:44:41;;;;;;;81.20;25.03;;;21.90;99.90;;;;;;5062004;28;20169;-86
2023/08/17 07:47:07;;;;;;;81.80;26.30;;;22.00;99.90;;;;;;5044013;28;20169;-86
2023/08/17 07:49:33;;;;;;;84.37;24.90;;;22.20;99.90;;;;;;5043718;28;20438;-85
2023/08/17 07:51:59;;;;;;;80.30;23.37;;;22.30;99.90;;;;;;5043702;28;20176;-86
2023/08/17 07:54:24;;;;;;;82.07;25.23;;;22.40;99.90;;;;;;5044157;28;20244;-85
2023/08/17 07:56:50;;;;;;;83.10;25.30;;;22.30;99.90;;;;;;5061597;28;20438;-86
2023/08/17 07:59:19;;;;;;;83.47;25.80;;;22.20;99.90;;;;;;5043698;28;20204;-87
2023/08/17 08:01:44;;;;;;;85.47;26.23;;;22.20;99.90;;;;;;5061689;28;20200;-87
2023/08/17 08:04:10;;;;;;;85.00;23.27;;;22.20;99.90;;;;;;5060965;28;20482;-85
2023/08/17 08:06:36;;;;;;;82.40;27.37;;;22.20;99.90;;;;;;5061295;28;20252;-85
2023/08/17 08:09:02;;;;;;;81.60;26.80;;;22.20;99.90;;;;;;5043730;28;20185;-86
2023/08/17 08:11:29;;;;;;;85.07;26.47;;;22.10;99.90;;;;;;5043753;28;20179;-85
2023/08/17 08:13:55;;;;;;;86.67;31.07;;;22.10;99.90;;;;;;5061441;28;20407;-86
2023/08/17 08:16:21;;;;;;;83.63;32.10;;;22.20;99.90;;;;;;5061659;28;20407;-86
2023/08/17 08:18:46;;;;;;;80.70;25.97;;;22.20;99.90;;;;;;5061992;28;20188;-86
2023/08/17 08:21:12;;;;;;;85.30;30.00;;;22.20;99.90;;;;;;5061632;28;20185;-86
2023/08/17 08:23:38;;;;;;;79.03;21.93;;;22.20;99.90;;;;;;5061023;28;20210;-86
2023/08/17 08:26:03;;;;;;;86.57;27.67;;;22.30;99.90;;;;;;5060848;28;20164;-86
2023/08/17 08:28:29;;;;;;;81.73;27.17;;;22.30;99.90;;;;;;5060990;28;20231;-85
2023/08/17 08:30:55;;;;;;;86.83;28.60;;;22.20;99.90;;;;;;5043332;28;20189;-86
2023/08/17 08:33:20;;;;;;;82.37;26.80;;;22.10;99.90;;;;;;5061004;28;20164;-85
2023/08/17 08:35:46;;;;;;;82.80;27.60;;;22.10;99.90;;;;;;5060885;28;20157;-86
2023/08/17 08:38:12;;;;;;;84.13;28.57;;;22.10;99.90;;;;;;5043343;28;20659;-86
2023/08/17 08:40:40;;;;;;;82.97;27.20;;;22.10;99.90;;;;;;5043375;28;20570;-86
2023/08/17 08:43:09;;;;;;;83.40;28.47;;;22.20;99.90;;;;;;5042836;28;20526;-86
2023/08/17 08:45:37;;;;;;;83.20;27.90;;;22.20;99.90;;;;;;5043355;28;20417;-84
2023/08/17 08:48:04;;;;;;;83.70;32.80;;;22.10;99.90;;;;;;5060548;28;20407;-84
2023/08/17 08:50:31;;;;;;;86.90;29.43;;;22.10;99.90;;;;;;5061211;28;20450;-86
2023/08/17 08:53:06;;;;;;;83.20;27.77;;;22.20;99.90;;;;;;5042899;28;20472;-85
2023/08/17 08:55:38;;;;;;;88.87;30.30;;;22.10;99.90;;;;;;5044288;28;20504;-86
2023/08/17 08:58:05;;;;;;;87.90;32.37;;;22.10;99.90;;;;;;5043301;28;20431;-86
2023/08/17 09:00:33;;;;;;;96.43;31.70;;;22.10;99.90;;;;;;5061074;28;20434;-86
2023/08/17 09:03:01;;;;;;;89.93;31.50;;;22.00;99.90;;;;;;5042101;28;20530;-85
2023/08/17 09:05:27;;;;;;;87.30;30.30;;;22.00;99.90;;;;;;5060514;28;20415;-85
2023/08/17 09:07:53;;;;;;;88.90;31.60;;;22.00;99.90;;;;;;5060448;28;20395;-86
2023/08/17 09:10:19;;;;;;;91.00;29.07;;;22.00;99.90;;;;;;5042266;28;20442;-85
2023/08/17 09:12:47;;;;;;;86.20;30.10;;;22.10;99.90;;;;;;5043264;28;20985;-86
2023/08/17 09:15:12;;;;;;;86.47;30.83;;;22.30;99.90;;;;;;5041697;28;20172;-86
2023/08/17 09:17:38;;;;;;;88.70;30.60;;;22.30;99.90;;;;;;5060286;28;20761;-86
2023/08/17 09:20:07;;;;;;;86.67;29.67;;;22.40;99.90;;;;;;5060732;28;20246;-85
2023/08/17 09:22:43;;;;;;;90.10;30.10;;;22.40;99.90;;;;;;5060353;28;20284;-86
2023/08/17 09:25:10;;;;;;;85.97;29.33;;;22.50;99.90;;;;;;5041823;28;20988;-85
2023/08/17 09:27:37;;;;;;;87.80;30.37;;;22.50;99.90;;;;;;5042358;28;20403;-85
2023/08/17 09:30:08;;;;;;;89.13;30.97;;;22.60;99.90;;;;;;5042450;28;20849;-86
2023/08/17 09:32:35;;;;;;;93.33;30.87;;;22.60;99.90;;;;;;5059631;28;20384;-84
2023/08/17 09:35:02;;;;;;;88.97;30.67;;;22.60;99.90;;;;;;5042245;28;20415;-84
2023/08/17 09:37:28;;;;;;;87.87;28.60;;;22.70;99.90;;;;;;5059843;28;20464;-86
2023/08/17 09:39:54;;;;;;;89.30;29.50;;;22.90;99.90;;;;;;5042167;28;20434;-86
2023/08/17 09:42:22;;;;;;;88.20;26.83;;;23.00;99.90;;;;;;5059673;28;20194;-85
2023/08/17 09:44:51;;;;;;;90.83;27.13;;;23.10;99.90;;;;;;5060582;28;20410;-86
2023/08/17 09:47:21;;;;;;;89.33;28.80;;;23.20;99.90;;;;;;5041186;28;20411;-86
2023/08/17 09:49:54;;;;;;;87.80;29.80;;;23.10;99.90;;;;;;5041487;28;20938;-86
2023/08/17 09:52:23;;;;;;;91.20;31.93;;;23.10;99.90;;;;;;5042637;28;20839;-85
2023/08/17 09:54:50;;;;;;;91.53;31.30;;;23.10;99.90;;;;;;5041944;28;20418;-86
2023/08/17 09:57:16;;;;;;;92.20;29.90;;;23.10;99.90;;;;;;5041449;28;20418;-86
2023/08/17 09:59:42;;;;;;;88.80;28.43;;;23.10;99.90;;;;;;5041963;28;20499;-86
2023/08/17 10:02:19;;;;;;;88.17;30.23;;;23.20;99.90;;;;;;5060534;28;20486;-87
2023/08/17 10:04:50;;;;;;;93.53;33.43;;;23.20;99.90;;;;;;5060254;28;20164;-85
2023/08/17 10:07:19;;;;;;;92.07;31.40;;;23.20;99.90;;;;;;5059648;28;20384;-86
2023/08/17 10:09:53;;;;;;;94.23;30.77;;;23.20;99.90;;;;;;5040969;28;20434;-85
2023/08/17 10:12:20;;;;;;;89.33;30.90;;;23.10;99.90;;;;;;5042632;28;20410;-85
2023/08/17 10:14:53;;;;;;;89.47;30.33;;;23.30;99.90;;;;;;5042564;28;20407;-85
2023/08/17 10:17:33;;;;;;;90.87;35.70;;;23.30;99.90;;;;;;5060703;28;20449;-86
2023/08/17 10:19:59;;;;;;;90.07;34.77;;;23.20;99.90;;;;;;5059317;28;20410;-85
2023/08/17 10:22:38;;;;;;;90.63;30.80;;;23.20;99.90;;;;;;5059244;28;20445;-85
2023/08/17 10:25:06;;;;;;;94.17;32.93;;;23.20;99.90;;;;;;5041953;28;20922;-84
2023/08/17 10:27:34;;;;;;;94.17;36.03;;;23.10;99.90;;;;;;5043753;28;20411;-85
2023/08/17 10:30:01;;;;;;;94.77;32.17;;;23.10;99.90;;;;;;5064447;28;20419;-86
2023/08/17 10:32:28;;;;;;;89.47;32.53;;;23.10;99.90;;;;;;5045956;28;20437;-85
2023/08/17 10:34:54;;;;;;;87.20;28.83;;;23.10;99.90;;;;;;5064382;28;20407;-86
2023/08/17 10:37:21;;;;;;;89.37;28.03;;;22.90;99.90;;;;;;5045694;28;20407;-84
2023/08/17 10:39:48;;;;;;;87.43;26.57;;;22.80;99.90;;;;;;5064048;28;21000;-86
2023/08/17 10:42:14;;;;;;;90.67;30.40;;;22.90;99.90;;;;;;5064321;28;20438;-85
2023/08/17 10:44:45;;;;;;;89.33;28.50;;;22.90;99.90;;;;;;5064416;28;20470;-84
2023/08/17 10:47:21;;;;;;;88.73;27.47;;;22.80;99.90;;;;;;5063689;28;20448;-86
2023/08/17 10:49:57;;;;;;;84.60;28.03;;;22.80;99.90;;;;;;5046189;28;20941;-86
2023/08/17 10:52:31;;;;;;;87.07;30.50;;;22.80;99.90;;;;;;5064594;28;20410;-84
2023/08/17 10:55:05;;;;;;;90.00;29.97;;;23.00;99.90;;;;;;5063348;28;20758;-85
2023/08/17 10:57:32;;;;;;;87.47;30.93;;;23.10;99.90;;;;;;5045777;28;20426;-85
2023/08/17 11:00:10;;;;;;;93.30;34.63;;;23.10;99.90;;;;;;5046250;28;20489;-85
2023/08/17 11:02:37;;;;;;;92.00;29.87;;;23.00;99.90;;;;;;5064429;28;20446;-85
2023/08/17 11:05:04;;;;;;;90.20;27.07;;;23.00;99.90;;;;;;5046801;28;20440;-85
2023/08/17 11:07:43;;;;;;;90.80;30.83;;;23.00;99.90;;;;;;5046237;28;20419;-84
2023/08/17 11:10:20;;;;;;;92.23;29.30;;;23.10;99.90;;;;;;5047484;28;20427;-85
2023/08/17 11:12:46;;;;;;;97.07;35.53;;;23.10;99.90;;;;;;5064213;28;20426;-85
2023/08/17 11:15:12;;;;;;;90.40;31.43;;;23.20;99.90;;;;;;5045958;28;20407;-84
2023/08/17 11:17:37;;;;;;;88.30;29.30;;;23.20;99.90;;;;;;5046016;28;20172;-84
2023/08/17 11:20:04;;;;;;;103.30;33.03;;;23.30;99.90;;;;;;5045906;28;20189;-84
2023/08/17 11:22:30;;;;;;;95.00;32.23;;;23.30;99.90;;;;;;5063716;28;20188;-84
2023/08/17 11:24:56;;;;;;;89.70;29.23;;;23.30;99.90;;;;;;5063718;28;20425;-85
2023/08/17 11:27:22;;;;;;;90.37;32.50;;;23.30;99.90;;;;;;5045986;28;20168;-84
2023/08/17 11:29:47;;;;;;;97.10;33.67;;;23.40;99.90;;;;;;5063611;28;20248;-84
2023/08/17 11:32:17;;;;;;;95.67;35.23;;;23.40;99.90;;;;;;5063989;28;20407;-84
2023/08/17 11:34:43;;;;;;;93.13;36.67;;;23.60;99.90;;;;;;5045887;28;20188;-85
2023/08/17 11:37:11;;;;;;;93.10;36.90;;;23.70;99.90;;;;;;5063989;28;20410;-84
2023/08/17 11:39:37;;;;;;;91.60;35.10;;;23.80;99.90;;;;;;5045680;28;20188;-84
2023/08/17 11:42:03;;;;;;;97.43;35.53;;;23.70;99.90;;;;;;5063849;28;20442;-85
2023/08/17 11:44:29;;;;;;;91.53;33.43;;;23.70;99.90;;;;;;5063405;28;20445;-85
2023/08/17 11:46:55;;;;;;;91.53;35.60;;;23.60;99.90;;;;;;5045121;28;20403;-84
2023/08/17 11:49:23;;;;;;;91.10;35.93;;;23.70;99.90;;;;;;5063904;28;20204;-85
2023/08/17 11:51:51;;;;;;;93.13;39.17;;;23.80;99.90;;;;;;5062652;28;20168;-85
2023/08/17 11:54:16;;;;;;;95.40;42.20;;;23.90;99.90;;;;;;5044849;28;20433;-86
2023/08/17 11:56:42;;;;;;;92.13;41.23;;;24.00;99.90;;;;;;5062261;28;20435;-86
2023/08/17 11:59:11;;;;;;;96.27;39.30;;;24.10;99.90;;;;;;5063355;28;20185;-84
2023/08/17 12:01:37;;;;;;;95.63;47.30;;;24.30;99.90;;;;;;5045490;28;20226;-85
2023/08/17 12:04:05;;;;;;;93.10;42.43;;;24.40;99.90;;;;;;5062782;28;20388;-85
2023/08/17 12:06:31;;;;;;;92.87;43.50;;;24.60;99.90;;;;;;5061505;28;20412;-85
2023/08/17 12:08:57;;;;;;;91.67;41.30;;;24.60;99.90;;;;;;5044256;28;20420;-84
2023/08/17 12:11:25;;;;;;;92.80;37.07;;;24.80;99.20;;;;;;5061964;28;20556;-84
2023/08/17 12:13:52;;;;;;;91.67;36.53;;;25.00;97.30;;;;;;5062000;28;20661;-85
2023/08/17 12:16:19;;;;;;;91.27;35.60;;;25.00;98.20;;;;;;5044403;28;20438;-85
2023/08/17 12:18:52;;;;;;;90.10;31.77;;;24.90;91.10;;;;;;5062107;28;20405;-84
2023/08/17 12:21:22;;;;;;;88.93;32.50;;;24.90;96.30;;;;;;5062173;28;20440;-84
2023/08/17 12:23:48;;;;;;;90.57;34.60;;;24.60;98.50;;;;;;5044828;28;20414;-85